Time;durP1;ratioP1;P1;durP2;ratioP2;P2;SDS_P1;SDS_P2;PMS_P1;PMS_P2;Temp;Humidity;BMP_temperature;BMP_pressure;BME280_temperature;BME280_humidity;BME280_pressure;Samples;Min_cycle;Max_cycle;Signal;HPM_P1;HPM_P2
2020/12/10 00:02:15;;;;;;;12.30;4.03;;;;;;;11.56;88.00;99936.78;5066101;28;20044;-75
2020/12/10 00:04:40;;;;;;;9.30;4.05;;;;;;;11.54;88.13;99951.41;5059688;28;20107;-75
2020/12/10 00:07:06;;;;;;;10.43;4.60;;;;;;;11.57;88.12;99946.28;5054660;28;20380;-77
2020/12/10 00:09:32;;;;;;;9.43;3.35;;;;;;;11.65;88.15;99961.97;5055073;28;20391;-74
2020/12/10 00:12:01;;;;;;;12.07;4.00;;;;;;;11.67;88.30;99943.94;5053651;28;20035;-78
2020/12/10 00:14:26;;;;;;;6.97;2.58;;;;;;;11.72;87.91;99960.44;5035703;28;20021;-78
2020/12/10 00:16:52;;;;;;;7.65;3.38;;;;;;;11.72;88.11;99943.19;5055810;28;20029;-76
2020/12/10 00:19:17;;;;;;;8.48;4.30;;;;;;;11.57;88.31;99919.56;5038478;28;20037;-75
2020/12/10 00:21:42;;;;;;;7.05;2.97;;;;;;;11.72;88.37;99950.94;5055769;28;20380;-75
2020/12/10 00:24:08;;;;;;;9.88;5.13;;;;;;;11.73;88.22;99949.25;5053418;28;20040;-74
2020/12/10 00:26:33;;;;;;;9.77;4.53;;;;;;;11.70;88.16;99933.66;5036549;28;20025;-74
2020/12/10 00:28:59;;;;;;;10.25;3.80;;;;;;;11.75;88.10;99951.03;5056164;28;20028;-74
2020/12/10 00:31:24;;;;;;;7.57;3.40;;;;;;;11.69;88.53;99940.56;5054551;28;20031;-74
2020/12/10 00:33:50;;;;;;;9.90;4.00;;;;;;;11.76;88.78;99949.31;5037483;28;20037;-75
2020/12/10 00:36:15;;;;;;;8.00;3.55;;;;;;;11.71;89.32;99941.44;5035818;28;20397;-74
2020/12/10 00:38:41;;;;;;;14.13;4.50;;;;;;;11.66;89.09;99932.69;5053893;28;20038;-82
2020/12/10 00:41:07;;;;;;;8.32;3.60;;;;;;;11.75;88.92;99940.69;5052852;28;20032;-78
2020/12/10 00:43:32;;;;;;;8.70;3.72;;;;;;;11.60;89.41;99923.09;5053850;28;20430;-74
2020/12/10 00:46:05;;;;;;;12.07;3.83;;;;;;;11.72;89.46;99940.59;5055866;28;20017;-76
2020/12/10 00:48:32;;;;;;;5.47;2.85;;;;;;;11.71;89.57;99938.84;5053422;28;20058;-79
2020/12/10 00:50:57;;;;;;;8.75;4.35;;;;;;;11.65;89.36;99928.38;5051446;28;20082;-79
2020/12/10 00:53:23;;;;;;;8.40;3.67;;;;;;;11.69;89.17;99930.22;5053492;28;20029;-75
2020/12/10 00:55:48;;;;;;;13.52;3.67;;;;;;;11.75;89.09;99937.22;5052716;28;20040;-75
2020/12/10 00:58:13;;;;;;;8.73;3.90;;;;;;;11.70;88.86;99928.47;5033167;28;20025;-78
2020/12/10 01:00:39;;;;;;;9.32;3.40;;;;;;;11.81;88.87;99940.84;5051534;28;20078;-75
2020/12/10 01:03:04;;;;;;;10.35;3.38;;;;;;;11.77;88.64;99930.38;5051968;28;20116;-77
2020/12/10 01:05:30;;;;;;;11.65;3.45;;;;;;;11.83;88.35;99946.03;5054804;28;20061;-77
2020/12/10 01:07:55;;;;;;;16.48;4.00;;;;;;;11.79;88.58;99942.50;5036444;28;20116;-77
2020/12/10 01:10:21;;;;;;;12.40;3.65;;;;;;;11.64;88.64;99916.31;5052881;28;20025;-77
2020/12/10 01:12:46;;;;;;;12.68;4.03;;;;;;;11.63;88.72;99918.00;5060093;28;20037;-87
2020/12/10 01:15:12;;;;;;;13.18;4.28;;;;;;;11.70;88.93;99931.06;5056142;28;20079;-82
2020/12/10 01:17:41;;;;;;;10.18;3.35;;;;;;;11.72;89.00;99926.81;5059595;28;20029;-81
2020/12/10 01:20:08;;;;;;;14.88;4.47;;;;;;;11.66;89.23;99917.19;5053072;28;20052;-79
2020/12/10 01:22:33;;;;;;;11.13;3.67;;;;;;;11.72;89.16;99929.41;5051147;28;20033;-83
2020/12/10 01:24:58;;;;;;;11.75;4.00;;;;;;;11.66;89.24;99919.78;5051602;28;20478;-78
2020/12/10 01:27:24;;;;;;;12.73;4.57;;;;;;;11.73;89.47;99934.59;5033732;28;20183;-78
2020/12/10 01:29:49;;;;;;;11.55;4.10;;;;;;;11.70;89.56;99913.84;5051153;28;20470;-80
2020/12/10 01:32:15;;;;;;;12.07;3.75;;;;;;;11.85;89.31;99925.38;5052502;28;20465;-79
2020/12/10 01:34:40;;;;;;;14.82;4.30;;;;;;;11.85;89.57;99925.38;5052834;28;20043;-80
2020/12/10 01:37:06;;;;;;;15.32;4.70;;;;;;;11.81;89.29;99911.50;5050907;28;20033;-81
2020/12/10 01:39:31;;;;;;;12.10;3.47;;;;;;;11.93;89.36;99927.28;5050489;28;20041;-83
2020/12/10 01:42:00;;;;;;;9.23;3.50;;;;;;;12.02;88.89;99915.44;5053767;28;20037;-80
2020/12/10 01:44:26;;;;;;;17.17;3.70;;;;;;;12.07;88.63;99903.50;5048712;28;20041;-81
2020/12/10 01:46:51;;;;;;;16.52;3.60;;;;;;;12.15;88.75;99901.94;5048164;28;20091;-80
2020/12/10 01:49:36;;;;;;;14.88;3.58;;;;;;;12.12;88.59;99884.66;5056392;28;20063;-81
2020/12/10 01:52:04;;;;;;;12.93;3.25;;;;;;;12.13;88.25;99883.78;5064013;28;20074;-77
2020/12/10 01:54:29;;;;;;;10.68;3.00;;;;;;;12.21;87.92;99885.66;5066619;28;20056;-77
2020/12/10 01:56:55;;;;;;;5.70;2.33;;;;;;;12.22;87.28;99866.72;5057967;28;20036;-77
2020/12/10 01:59:22;;;;;;;7.25;2.55;;;;;;;12.23;87.60;99869.31;5055812;28;20033;-76
2020/12/10 02:01:48;;;;;;;8.25;3.03;;;;;;;12.22;87.55;99871.88;5049889;28;20028;-76
2020/12/10 02:04:29;;;;;;;11.02;3.05;;;;;;;11.93;87.64;99804.88;5052324;28;20029;-79
2020/12/10 02:06:58;;;;;;;9.27;2.88;;;;;;;12.04;87.67;99836.16;5049382;28;20162;-87
2020/12/10 02:09:23;;;;;;;4.50;2.38;;;;;;;12.14;87.80;99833.78;5052950;28;20028;-78
2020/12/10 02:11:50;;;;;;;11.18;3.72;;;;;;;12.00;87.54;99827.47;5069009;28;20111;-81
2020/12/10 02:14:16;;;;;;;9.48;2.67;;;;;;;12.16;87.40;99841.56;5049648;28;20698;-76
2020/12/10 02:16:41;;;;;;;10.15;2.97;;;;;;;12.17;87.36;99845.03;5052711;28;20059;-80
2020/12/10 02:19:07;;;;;;;11.35;2.58;;;;;;;12.10;87.46;99844.91;5051094;28;20024;-79
2020/12/10 02:21:33;;;;;;;14.95;2.92;;;;;;;12.09;87.18;99842.31;5033338;28;20049;-78
2020/12/10 02:23:58;;;;;;;15.23;3.35;;;;;;;12.09;87.21;99845.75;5053160;28;20126;-79
2020/12/10 02:26:25;;;;;;;11.43;3.17;;;;;;;12.13;87.24;99857.91;5036644;28;20041;-80
2020/12/10 02:28:55;;;;;;;9.98;3.45;;;;;;;12.09;86.97;99827.63;5050843;28;20181;-78
2020/12/10 02:31:22;;;;;;;10.48;3.00;;;;;;;12.07;87.22;99831.03;5034620;28;20024;-80
2020/12/10 02:33:48;;;;;;;14.07;2.65;;;;;;;12.05;86.90;99823.25;5051402;28;20512;-80
2020/12/10 02:36:13;;;;;;;8.55;3.25;;;;;;;12.04;87.48;99842.19;5051215;28;20021;-81
2020/12/10 02:38:38;;;;;;;7.20;2.65;;;;;;;11.96;87.89;99838.56;5053228;28;20540;-80
2020/12/10 02:41:04;;;;;;;9.38;2.97;;;;;;;11.91;88.16;99846.22;5051222;28;20486;-80
2020/12/10 02:43:29;;;;;;;18.08;4.20;;;;;;;11.93;88.29;99859.19;5054054;28;20024;-82
2020/12/10 02:45:55;;;;;;;14.85;3.85;;;;;;;11.89;88.34;99862.56;5052066;28;20052;-80
2020/12/10 02:48:20;;;;;;;9.77;3.10;;;;;;;11.87;88.55;99861.63;5034516;28;20024;-79
2020/12/10 02:50:46;;;;;;;10.60;3.00;;;;;;;11.82;88.55;99852.06;5050972;28;20025;-79
2020/12/10 02:53:11;;;;;;;11.20;3.50;;;;;;;11.87;88.40;99866.81;5051107;28;20024;-80
2020/12/10 02:55:36;;;;;;;17.50;3.63;;;;;;;11.90;88.58;99869.44;5052741;28;20036;-80
2020/12/10 02:58:02;;;;;;;12.55;3.50;;;;;;;11.92;88.25;99862.59;5052681;28;20021;-80
2020/12/10 03:00:27;;;;;;;14.63;2.90;;;;;;;11.71;88.01;99814.72;5053928;28;20032;-80
2020/12/10 03:02:53;;;;;;;16.83;3.67;;;;;;;11.97;88.02;99859.31;5033860;28;20049;-80
2020/12/10 03:05:18;;;;;;;13.32;3.55;;;;;;;11.96;88.05;99860.16;5052166;28;20028;-81
2020/12/10 03:07:44;;;;;;;13.43;3.17;;;;;;;11.98;87.88;99862.78;5050908;28;20033;-80
2020/12/10 03:10:09;;;;;;;13.35;3.38;;;;;;;12.00;87.40;99847.28;5032399;28;20021;-80
2020/12/10 03:12:35;;;;;;;10.70;3.10;;;;;;;12.08;87.79;99864.69;5052577;28;20024;-81
2020/12/10 03:15:00;;;;;;;10.20;2.60;;;;;;;12.00;88.14;99853.34;5051897;28;20384;-81
2020/12/10 03:17:26;;;;;;;11.93;3.08;;;;;;;12.01;88.52;99854.19;5035732;28;20024;-80
2020/12/10 03:19:51;;;;;;;11.93;3.60;;;;;;;11.99;88.90;99856.75;5079256;28;20071;-80
2020/12/10 03:22:17;;;;;;;12.40;3.33;;;;;;;11.95;88.94;99844.53;5072071;28;20025;-79
2020/12/10 03:24:42;;;;;;;11.63;3.03;;;;;;;11.94;89.19;99853.19;5056989;28;20043;-80
2020/12/10 03:27:08;;;;;;;13.65;3.08;;;;;;;11.98;88.88;99842.94;5074928;28;20025;-81
2020/12/10 03:29:34;;;;;;;8.38;2.55;;;;;;;11.98;88.53;99818.78;5074991;28;20402;-78
2020/12/10 03:32:00;;;;;;;10.05;2.38;;;;;;;11.91;88.51;99810.00;5074925;28;20028;-80
2020/12/10 03:34:26;;;;;;;8.73;2.58;;;;;;;12.07;88.17;99823.28;5074578;28;20475;-80
2020/12/10 03:36:54;;;;;;;7.68;2.13;;;;;;;12.10;88.33;99836.25;5074563;28;20029;-79
2020/12/10 03:39:22;;;;;;;10.20;2.90;;;;;;;12.09;88.27;99832.81;5056521;28;20424;-78
2020/12/10 03:41:48;;;;;;;10.10;2.28;;;;;;;12.11;88.21;99857.03;5074630;28;20056;-78
2020/12/10 03:44:14;;;;;;;6.28;2.33;;;;;;;12.14;88.31;99851.03;5074728;28;20028;-83
2020/12/10 03:46:40;;;;;;;8.10;2.10;;;;;;;12.13;88.39;99852.72;5056470;28;20027;-82
2020/12/10 03:49:07;;;;;;;7.55;1.92;;;;;;;12.19;88.12;99852.00;5074677;28;20036;-78
2020/12/10 03:51:33;;;;;;;11.50;2.17;;;;;;;12.18;88.24;99857.16;5074739;28;20039;-80
2020/12/10 03:53:58;;;;;;;8.43;2.45;;;;;;;12.09;89.31;99845.75;5056538;28;20390;-78
2020/12/10 03:56:24;;;;;;;8.93;2.35;;;;;;;11.94;89.37;99807.47;5074454;28;20033;-78
2020/12/10 03:58:50;;;;;;;5.13;2.10;;;;;;;12.04;89.98;99847.38;5056485;28;20453;-78
2020/12/10 04:01:15;;;;;;;10.13;2.13;;;;;;;12.10;89.72;99863.03;5055868;28;20025;-81
2020/12/10 04:03:41;;;;;;;14.23;2.97;;;;;;;12.06;89.99;99865.50;5074365;28;20029;-78
2020/12/10 04:06:06;;;;;;;12.80;2.92;;;;;;;12.08;89.92;99877.63;5072676;28;20036;-82
2020/12/10 04:08:32;;;;;;;7.72;2.35;;;;;;;12.06;90.13;99874.16;5074144;28;20032;-78
2020/12/10 04:10:58;;;;;;;6.85;2.03;;;;;;;12.05;89.81;99849.13;5074155;28;20367;-78
2020/12/10 04:13:23;;;;;;;7.00;1.60;;;;;;;12.09;88.82;99861.28;5074305;28;20037;-81
2020/12/10 04:15:49;;;;;;;7.28;1.48;;;;;;;12.05;87.57;99837.88;5056070;28;20527;-78
2020/12/10 04:18:14;;;;;;;10.75;2.15;;;;;;;12.17;87.24;99845.03;5074142;28;20028;-80
2020/12/10 04:20:40;;;;;;;6.45;1.60;;;;;;;12.06;87.71;99831.88;5074069;28;20033;-79
2020/12/10 04:23:05;;;;;;;11.40;3.28;;;;;;;12.19;87.28;99835.63;5055622;28;20028;-78
2020/12/10 04:25:30;;;;;;;12.18;1.95;;;;;;;12.17;86.47;99837.28;5072693;28;20046;-79
2020/12/10 04:27:56;;;;;;;5.20;1.67;;;;;;;12.24;86.32;99855.53;5073589;28;20090;-81
2020/12/10 04:30:21;;;;;;;6.43;2.20;;;;;;;11.88;86.21;99793.56;5073889;28;20031;-78
2020/12/10 04:32:47;;;;;;;4.47;1.40;;;;;;;12.18;85.93;99852.84;5073520;28;20053;-80
2020/12/10 04:35:13;;;;;;;7.20;1.33;;;;;;;12.17;85.71;99857.97;5073886;28;20031;-81
2020/12/10 04:37:39;;;;;;;7.43;1.52;;;;;;;12.19;85.42;99867.53;5073333;28;20111;-79
2020/12/10 04:40:04;;;;;;;3.90;1.30;;;;;;;12.14;84.97;99864.84;5066717;28;20063;-77
2020/12/10 04:42:30;;;;;;;4.45;1.25;;;;;;;12.15;85.27;99873.50;5073719;28;20064;-79
2020/12/10 04:44:56;;;;;;;5.90;1.73;;;;;;;12.10;85.19;99878.56;5073636;28;20024;-81
2020/12/10 04:47:23;;;;;;;5.85;1.30;;;;;;;12.06;85.26;99881.03;5055409;28;20032;-80
2020/12/10 04:49:51;;;;;;;7.97;1.80;;;;;;;11.96;85.92;99872.19;5073439;28;20492;-84
2020/12/10 04:52:17;;;;;;;8.48;1.73;;;;;;;11.97;86.10;99881.72;5055324;28;20418;-82
2020/12/10 04:54:43;;;;;;;10.25;1.80;;;;;;;11.98;86.31;99884.31;5055214;28;20032;-83
2020/12/10 04:57:11;;;;;;;5.57;1.52;;;;;;;11.87;86.78;99861.63;5073524;28;20051;-81
2020/12/10 04:59:36;;;;;;;6.13;1.45;;;;;;;11.89;87.56;99878.94;5055212;28;20081;-79
2020/12/10 05:02:07;;;;;;;8.88;2.30;;;;;;;11.88;87.98;99871.16;5055025;28;20448;-84
2020/12/10 05:04:34;;;;;;;4.35;1.48;;;;;;;11.80;87.79;99869.25;5073136;28;20046;-82
2020/12/10 05:06:59;;;;;;;8.48;1.75;;;;;;;11.80;87.31;99863.19;5072638;28;20031;-78
2020/12/10 05:09:25;;;;;;;5.13;1.10;;;;;;;11.79;86.72;99869.22;5055091;28;20032;-77
2020/12/10 05:11:50;;;;;;;5.35;1.27;;;;;;;11.78;86.62;99868.34;5055034;28;20032;-79
2020/12/10 05:14:16;;;;;;;12.35;1.45;;;;;;;11.83;87.22;99873.63;5072541;28;20592;-82
2020/12/10 05:16:41;;;;;;;9.10;1.58;;;;;;;11.72;88.04;99859.59;5072772;28;20073;-80
2020/12/10 05:19:20;;;;;;;7.03;1.50;;;;;;;11.64;89.06;99865.44;5054742;28;20488;-77
2020/12/10 05:22:02;;;;;;;11.20;2.13;;;;;;;11.68;89.81;99875.88;5072411;28;20028;-80
2020/12/10 05:24:27;;;;;;;11.38;2.53;;;;;;;11.68;90.38;99881.91;5072556;28;20275;-80
2020/12/10 05:27:16;;;;;;;11.50;2.17;;;;;;;11.47;90.67;99849.53;5072145;28;20099;-82
2020/12/10 05:29:42;;;;;;;12.07;2.60;;;;;;;11.59;91.26;99884.25;5054484;28;20024;-79
2020/12/10 05:32:09;;;;;;;9.52;2.50;;;;;;;11.59;91.34;99884.25;5072461;28;20092;-77
2020/12/10 05:34:35;;;;;;;12.05;2.53;;;;;;;11.63;91.10;99899.03;5072389;28;20041;-78
2020/12/10 05:37:00;;;;;;;14.85;2.55;;;;;;;11.70;90.90;99902.63;5072584;28;20029;-78
2020/12/10 05:39:26;;;;;;;14.32;2.65;;;;;;;11.71;90.87;99900.06;5072370;28;20532;-80
2020/12/10 05:41:54;;;;;;;14.45;4.60;;;;;;;11.80;90.20;99896.81;5072121;28;20402;-78
2020/12/10 05:44:24;;;;;;;10.15;3.20;;;;;;;11.70;89.73;99869.91;5053733;28;20039;-79
2020/12/10 05:47:01;;;;;;;17.92;7.45;;;;;;;11.90;89.64;99905.66;5072330;28;20021;-79
2020/12/10 05:49:27;;;;;;;18.05;7.10;;;;;;;11.95;89.70;99898.88;5071985;28;20039;-78
2020/12/10 05:52:01;;;;;;;17.20;6.80;;;;;;;12.03;89.06;99912.03;5072121;28;20067;-81
2020/12/10 05:54:28;;;;;;;20.85;5.78;;;;;;;11.98;88.56;99891.22;5071985;28;20029;-80
2020/12/10 05:56:56;;;;;;;18.60;4.97;;;;;;;11.90;88.49;99882.38;5072102;28;20028;-80
2020/12/10 05:59:30;;;;;;;40.50;20.83;;;;;;;12.03;88.76;99906.84;5072083;28;20053;-81
2020/12/10 06:02:01;;;;;;;24.88;7.32;;;;;;;12.01;88.80;99919.72;5072019;28;20024;-81
2020/12/10 06:04:27;;;;;;;54.15;49.40;;;;;;;11.94;88.81;99910.94;5072017;28;20048;-80
2020/12/10 06:06:57;;;;;;;46.08;41.30;;;;;;;12.01;89.19;99919.72;5054110;28;20067;-80
2020/12/10 06:09:24;;;;;;;21.50;12.27;;;;;;;11.99;88.73;99916.25;5071410;28;20033;-80
2020/12/10 06:11:50;;;;;;;24.00;11.50;;;;;;;11.82;89.61;99927.06;5071745;28;20060;-77
2020/12/10 06:14:15;;;;;;;12.75;3.67;;;;;;;11.87;90.26;99923.72;5071779;28;20432;-82
2020/12/10 06:16:41;;;;;;;12.45;4.90;;;;;;;11.87;90.26;99926.28;5070369;28;20036;-79
2020/12/10 06:19:10;;;;;;;15.15;4.90;;;;;;;11.75;90.96;99917.41;5071744;28;20024;-82
2020/12/10 06:21:45;;;;;;;13.25;8.02;;;;;;;11.87;90.78;99934.91;5072212;28;20466;-84
2020/12/10 06:24:26;;;;;;;11.45;5.10;;;;;;;11.74;91.16;99905.31;5071635;28;20160;-78
2020/12/10 06:26:52;;;;;;;24.30;13.82;;;;;;;11.94;90.87;99920.44;5071790;28;20082;-84
2020/12/10 06:29:35;;;;;;;14.13;6.22;;;;;;;11.84;90.95;99884.81;5053545;28;20037;-79
2020/12/10 06:32:05;;;;;;;30.40;19.70;;;;;;;12.03;91.07;99915.47;5071185;28;20071;-79
2020/12/10 06:34:44;;;;;;;10.25;5.50;;;;;;;12.09;90.99;99915.63;5070457;28;20037;-80
2020/12/10 06:37:24;;;;;;;67.43;45.78;;;;;;;12.09;90.80;99902.69;5070961;28;20059;-81
2020/12/10 06:39:56;;;;;;;35.50;26.67;;;;;;;12.13;90.48;99914.84;5071309;28;20032;-79
2020/12/10 06:42:21;;;;;;;38.28;25.35;;;;;;;12.10;90.03;99907.03;5071821;28;20063;-79
2020/12/10 06:44:47;;;;;;;16.95;8.82;;;;;;;12.17;90.13;99905.41;5053266;28;20056;-79
2020/12/10 06:47:13;;;;;;;16.55;9.80;;;;;;;12.05;89.95;99890.53;5071860;28;20036;-85
2020/12/10 06:49:39;;;;;;;15.68;8.82;;;;;;;12.08;90.04;99900.94;5069149;28;20178;-81
2020/12/10 06:52:12;;;;;;;19.02;8.90;;;;;;;12.13;90.04;99908.78;5070513;28;20368;-81
2020/12/10 06:55:06;;;;;;;9.25;4.80;;;;;;;12.18;90.17;99912.34;5027828;28;20051;-81
2020/12/10 06:58:03;;;;;;;15.55;3.90;;;;;;;12.06;90.45;99901.72;5028572;28;20045;-81
2020/12/10 07:00:36;;;;;;;13.80;3.55;;;;;;;12.09;90.41;99925.97;5014529;28;20041;-81
2020/12/10 07:03:21;;;;;;;10.85;3.85;;;;;;;12.06;90.57;99931.09;5013280;28;20535;-81
2020/12/10 07:05:47;;;;;;;35.45;24.20;;;;;;;11.81;92.75;99958.06;5015205;28;20064;-81
2020/12/10 07:08:15;;;;;;;100.47;83.90;;;;;;;11.56;94.14;99944.53;5030765;28;20029;-80
2020/12/10 07:10:46;;;;;;;16.75;7.70;;;;;;;11.62;94.36;99946.41;5030694;28;20113;-81
2020/12/10 07:13:15;;;;;;;13.02;6.00;;;;;;;11.60;93.98;99935.13;5015704;28;20039;-80
2020/12/10 07:15:46;;;;;;;12.80;5.43;;;;;;;11.80;93.69;99964.06;5031155;28;20465;-80
2020/12/10 07:18:12;;;;;;;18.10;5.22;;;;;;;11.77;94.14;99951.06;5031354;28;20122;-80
2020/12/10 07:20:37;;;;;;;16.08;4.10;;;;;;;11.82;94.15;99964.97;5014078;28;20176;-80
2020/12/10 07:23:03;;;;;;;15.38;4.50;;;;;;;11.56;94.36;99916.09;5030503;28;20094;-80
2020/12/10 07:25:28;;;;;;;19.83;6.00;;;;;;;11.79;94.53;99959.75;5030133;28;20083;-80
2020/12/10 07:27:55;;;;;;;20.63;5.93;;;;;;;11.81;94.46;99960.63;5031844;28;20483;-81
2020/12/10 07:30:23;;;;;;;16.25;4.40;;;;;;;11.84;94.51;99949.50;5030701;28;20045;-80
2020/12/10 07:32:52;;;;;;;17.48;4.63;;;;;;;11.78;94.72;99955.41;5063988;28;20047;-80
2020/12/10 07:35:26;;;;;;;15.35;4.20;;;;;;;11.81;94.52;99960.63;5074146;28;20105;-81
2020/12/10 07:37:52;;;;;;;11.02;3.95;;;;;;;11.75;94.57;99932.94;5073930;28;20025;-78
2020/12/10 07:40:18;;;;;;;16.92;4.25;;;;;;;11.82;94.83;99947.75;5056137;28;20032;-80
2020/12/10 07:42:44;;;;;;;15.05;3.40;;;;;;;11.79;95.16;99937.34;5055902;28;20028;-80
2020/12/10 07:45:19;;;;;;;11.27;3.63;;;;;;;11.82;94.57;99940.00;5055749;28;20033;-80
2020/12/10 07:47:55;;;;;;;11.23;3.88;;;;;;;11.85;94.37;99935.72;5056087;28;20033;-80
2020/12/10 07:50:26;;;;;;;13.70;3.38;;;;;;;11.83;94.37;99927.94;5091163;28;20028;-81
2020/12/10 07:52:53;;;;;;;14.13;5.22;;;;;;;11.91;94.18;99939.34;5094483;28;20035;-81
2020/12/10 07:55:23;;;;;;;16.60;4.70;;;;;;;11.96;94.12;99936.88;5094360;28;20047;-81
2020/12/10 07:58:00;;;;;;;12.82;3.85;;;;;;;11.98;94.25;99936.06;5093590;28;20481;-81
2020/12/10 08:00:29;;;;;;;13.85;4.70;;;;;;;12.03;94.28;99941.34;5076212;28;20036;-81
2020/12/10 08:03:18;;;;;;;20.05;4.80;;;;;;;12.04;94.32;99925.00;5094353;28;20035;-81
2020/12/10 08:05:53;;;;;;;17.00;4.85;;;;;;;12.12;94.60;99932.91;5093852;28;20496;-81
2020/12/10 08:08:32;;;;;;;13.35;4.65;;;;;;;12.13;94.26;99926.91;5093792;28;20028;-82
2020/12/10 08:11:20;;;;;;;15.82;4.38;;;;;;;12.17;94.02;99925.25;5094179;28;20032;-81
2020/12/10 08:14:08;;;;;;;14.05;5.72;;;;;;;12.20;94.21;99935.66;5093886;28;20056;-81
2020/12/10 08:16:37;;;;;;;16.58;4.75;;;;;;;12.28;93.84;99941.91;5075035;28;20028;-81
2020/12/10 08:19:16;;;;;;;15.32;5.28;;;;;;;12.10;92.64;99899.25;5093423;28;20059;-81
2020/12/10 08:21:43;;;;;;;19.63;4.78;;;;;;;12.39;92.65;99943.00;5093628;28;20024;-81
2020/12/10 08:24:09;;;;;;;15.48;5.68;;;;;;;12.36;92.46;99935.19;5074639;28;20379;-81
2020/12/10 08:26:34;;;;;;;10.10;4.32;;;;;;;12.38;91.62;99932.63;5074891;28;20090;-81
2020/12/10 08:29:00;;;;;;;12.60;4.68;;;;;;;12.23;91.59;99905.56;5075213;28;20085;-81
2020/12/10 08:31:27;;;;;;;14.07;3.55;;;;;;;12.37;90.47;99938.63;5093047;28;20028;-81
2020/12/10 08:33:54;;;;;;;11.52;3.10;;;;;;;12.38;90.49;99928.28;5092437;28;20059;-81
2020/12/10 08:36:28;;;;;;;9.15;2.60;;;;;;;12.36;90.16;99921.34;5093554;28;20074;-81
2020/12/10 08:38:54;;;;;;;14.13;3.25;;;;;;;12.34;90.35;99912.69;5092541;28;20028;-81
2020/12/10 08:41:34;;;;;;;16.15;3.30;;;;;;;12.34;90.54;99913.56;5093329;28;20030;-81
2020/12/10 08:44:01;;;;;;;;;;;;;;;12.35;90.18;99906.66;5075130;28;20032;-81
2020/12/10 08:46:27;;;;;;;11.13;2.92;;;;;;;12.29;90.44;99905.69;5092793;28;19912;-81
2020/12/10 08:48:54;;;;;;;7.82;2.80;;;;;;;12.25;90.79;99896.13;5092622;28;20012;-81
2020/12/10 08:51:19;;;;;;;10.48;2.70;;;;;;;12.27;91.61;99906.50;5091479;28;20417;-81
2020/12/10 08:53:50;;;;;;;7.65;2.22;;;;;;;12.19;91.28;99880.47;5074660;28;20119;-81
2020/12/10 08:56:25;;;;;;;17.50;2.88;;;;;;;12.18;91.64;99896.81;5092782;28;20033;-81
2020/12/10 08:58:50;;;;;;;8.23;2.80;;;;;;;12.12;92.27;99881.16;5092691;28;20038;-80
2020/12/10 09:01:16;;;;;;;8.68;2.65;;;;;;;12.16;92.83;99893.31;5076290;28;20515;-80
2020/12/10 09:03:42;;;;;;;9.32;2.78;;;;;;;12.06;93.24;99878.44;5072466;28;20035;-80
2020/12/10 09:06:07;;;;;;;9.95;2.33;;;;;;;12.06;93.57;99891.38;5070375;28;20117;-79
2020/12/10 09:08:33;;;;;;;11.10;2.92;;;;;;;12.05;93.59;99900.88;5072479;28;20355;-80
2020/12/10 09:10:58;;;;;;;9.65;2.72;;;;;;;12.00;93.00;99888.66;5071707;28;20028;-79
2020/12/10 09:13:24;;;;;;;10.52;2.63;;;;;;;12.02;93.41;99897.34;5072252;28;20036;-79
2020/12/10 09:15:51;;;;;;;10.07;2.85;;;;;;;12.03;93.40;99899.97;5029887;28;20042;-79
2020/12/10 09:18:16;;;;;;;14.48;3.03;;;;;;;11.89;93.31;99881.53;5030015;28;20045;-79
2020/12/10 09:20:42;;;;;;;13.27;2.95;;;;;;;11.84;93.39;99884.81;5028934;28;20033;-79
2020/12/10 09:23:11;;;;;;;9.30;2.70;;;;;;;11.93;93.28;99893.66;5029309;28;20052;-80
2020/12/10 09:25:37;;;;;;;14.93;3.17;;;;;;;11.94;93.23;99904.91;5029541;28;20045;-80
2020/12/10 09:28:04;;;;;;;4.10;1.65;;;;;;;11.90;92.16;99895.31;5012497;28;20033;-79
2020/12/10 09:30:29;;;;;;;5.22;1.63;;;;;;;12.05;88.68;99898.28;5029958;28;20041;-79
2020/12/10 09:32:55;;;;;;;3.72;0.98;;;;;;;12.01;89.17;99896.44;5029486;28;20084;-78
2020/12/10 09:35:20;;;;;;;6.13;1.42;;;;;;;12.05;89.11;99894.81;5029740;28;20044;-79
2020/12/10 09:37:46;;;;;;;6.75;1.27;;;;;;;12.05;88.08;99887.03;5029464;28;20126;-79
2020/12/10 09:40:13;;;;;;;2.55;1.38;;;;;;;12.09;88.19;99894.91;5024541;28;20044;-79
2020/12/10 09:42:41;;;;;;;5.05;1.40;;;;;;;11.99;89.41;99887.81;5029160;28;20497;-79
2020/12/10 09:45:06;;;;;;;6.72;1.40;;;;;;;11.98;89.25;99893.81;5029137;28;20030;-79
2020/12/10 09:47:32;;;;;;;5.65;1.17;;;;;;;11.99;89.65;99890.41;5045123;28;20047;-79
2020/12/10 09:49:58;;;;;;;6.72;1.88;;;;;;;11.96;90.21;99890.31;5070781;28;20031;-79
2020/12/10 09:52:25;;;;;;;5.22;1.17;;;;;;;11.91;89.77;99873.78;5052077;28;20115;-79
2020/12/10 09:59:54;;;;;;;7.80;2.00;;;;;;;11.88;90.45;99890.13;5071509;28;20024;-77
2020/12/10 10:02:19;;;;;;;9.55;1.70;;;;;;;11.86;90.78;99884.03;5047062;28;20119;-78
2020/12/10 10:04:45;;;;;;;9.63;2.05;;;;;;;11.91;90.74;99892.78;5070925;28;20375;-78
2020/12/10 10:07:11;;;;;;;9.85;2.15;;;;;;;11.92;91.04;99894.50;5071262;28;20033;-76
2020/12/10 10:09:37;;;;;;;9.68;2.70;;;;;;;11.89;91.46;99896.19;5070188;28;20040;-80
2020/12/10 10:12:05;;;;;;;5.97;2.47;;;;;;;11.75;90.67;99859.63;5069976;28;20028;-77
2020/12/10 10:14:31;;;;;;;8.23;1.80;;;;;;;11.94;90.39;99903.19;5069194;28;20012;-77
2020/12/10 10:16:57;;;;;;;8.90;1.83;;;;;;;11.91;90.42;99889.31;5070646;28;20031;-77
2020/12/10 10:19:22;;;;;;;7.80;2.22;;;;;;;11.92;90.25;99886.75;5051424;28;20017;-77
2020/12/10 10:21:48;;;;;;;5.10;2.30;;;;;;;11.90;89.70;99895.31;5070601;28;20028;-77
2020/12/10 10:24:13;;;;;;;10.80;1.90;;;;;;;11.91;88.21;99897.06;5070910;28;20398;-76
2020/12/10 10:26:39;;;;;;;7.68;1.90;;;;;;;11.89;89.19;99899.63;5052288;28;20021;-77
2020/12/10 10:29:07;;;;;;;11.07;2.83;;;;;;;11.68;88.72;99856.06;5069793;28;20023;-79
2020/12/10 10:31:33;;;;;;;7.35;2.03;;;;;;;11.86;88.34;99872.81;5069230;28;20035;-79
2020/12/10 10:33:59;;;;;;;7.25;1.90;;;;;;;11.86;89.17;99885.75;5070294;28;20561;-79
2020/12/10 10:36:24;;;;;;;7.57;2.05;;;;;;;11.80;89.24;99879.59;5068505;28;20059;-78
2020/12/10 10:38:50;;;;;;;7.20;2.22;;;;;;;11.90;89.01;99892.72;5068968;28;20028;-78
2020/12/10 10:41:17;;;;;;;8.60;2.45;;;;;;;11.89;88.71;99891.00;5051650;28;20031;-79
2020/12/10 10:43:43;;;;;;;6.53;2.42;;;;;;;11.81;88.71;99886.53;5033834;28;20516;-79
2020/12/10 10:46:08;;;;;;;13.88;2.65;;;;;;;11.83;88.94;99899.50;5070121;28;20021;-79
2020/12/10 10:48:34;;;;;;;7.30;1.98;;;;;;;11.78;88.97;99899.38;5070231;28;20081;-79
2020/12/10 10:51:01;;;;;;;8.75;2.42;;;;;;;11.52;88.96;99852.25;5070364;28;20024;-78
2020/12/10 10:53:26;;;;;;;10.95;2.35;;;;;;;11.77;89.16;99896.75;5069339;28;20078;-77
2020/12/10 10:55:52;;;;;;;11.40;2.75;;;;;;;11.75;89.35;99907.06;5070422;28;20074;-78
2020/12/10 10:58:17;;;;;;;4.03;1.60;;;;;;;11.78;88.22;99896.78;5051257;28;20060;-78
2020/12/10 11:00:47;;;;;;;11.85;2.80;;;;;;;11.75;88.58;99893.25;5069875;28;20463;-79
2020/12/10 11:03:13;;;;;;;8.50;2.35;;;;;;;11.73;87.77;99890.63;5070449;28;20069;-77
2020/12/10 11:05:38;;;;;;;8.32;1.98;;;;;;;11.63;87.60;99852.50;5068071;28;20107;-77
2020/12/10 11:08:04;;;;;;;9.52;3.45;;;;;;;11.49;88.18;99852.19;5069925;28;20034;-77
2020/12/10 11:10:29;;;;;;;10.50;3.08;;;;;;;11.60;88.44;99871.41;5069712;28;20020;-78
2020/12/10 11:12:55;;;;;;;7.57;2.10;;;;;;;11.59;88.01;99872.22;5070121;28;20056;-78
2020/12/10 11:15:21;;;;;;;6.72;2.72;;;;;;;11.49;88.11;99862.53;5068560;28;20494;-78
2020/12/10 11:17:46;;;;;;;8.75;2.42;;;;;;;11.47;88.08;99861.59;5069859;28;20036;-76
2020/12/10 11:20:12;;;;;;;6.05;1.73;;;;;;;11.41;88.13;99870.06;5070112;28;20688;-78
2020/12/10 11:22:38;;;;;;;7.70;2.03;;;;;;;11.38;88.76;99859.69;5067306;28;20036;-79
2020/12/10 11:25:05;;;;;;;7.82;1.92;;;;;;;11.33;89.14;99859.56;5069293;28;20505;-78
2020/12/10 11:27:33;;;;;;;10.38;2.00;;;;;;;11.27;88.74;99850.78;5068861;28;20033;-77
2020/12/10 11:29:59;;;;;;;7.00;1.92;;;;;;;11.23;88.94;99838.66;5046786;28;20041;-78
2020/12/10 11:32:25;;;;;;;4.68;1.80;;;;;;;11.23;89.38;99831.75;5045243;28;20148;-79
2020/12/10 11:34:50;;;;;;;6.20;1.60;;;;;;;11.19;88.57;99819.63;5047243;28;20071;-80
2020/12/10 11:37:16;;;;;;;8.85;1.80;;;;;;;11.27;88.71;99827.53;5045968;28;20032;-78